sensor_id;sensor_type;location;lat;lon;timestamp;noise_LAeq;noise_LA_min;noise_LA_max;noise_LA01;noise_LA95
61270;Laerm;47150;53.032;8.960;2023-02-25T00:00:13;38.20;37.10;39.41;;
61270;Laerm;47150;53.032;8.960;2023-02-25T00:02:46;38.22;36.80;39.63;;
61270;Laerm;47150;53.032;8.960;2023-02-25T00:05:12;38.27;36.85;39.59;;
61270;Laerm;47150;53.032;8.960;2023-02-25T00:07:38;38.29;36.74;39.74;;
61270;Laerm;47150;53.032;8.960;2023-02-25T00:10:05;38.33;37.02;39.69;;
61270;Laerm;47150;53.032;8.960;2023-02-25T00:12:31;38.33;37.00;39.61;;
61270;Laerm;47150;53.032;8.960;2023-02-25T00:14:56;38.36;37.03;39.54;;
61270;Laerm;47150;53.032;8.960;2023-02-25T00:17:22;38.35;37.15;39.69;;
61270;Laerm;47150;53.032;8.960;2023-02-25T00:19:47;38.34;36.99;39.67;;
61270;Laerm;47150;53.032;8.960;2023-02-25T00:22:12;38.34;36.90;39.63;;
61270;Laerm;47150;53.032;8.960;2023-02-25T00:24:38;38.35;37.00;39.66;;
61270;Laerm;47150;53.032;8.960;2023-02-25T00:27:03;38.34;37.06;39.66;;
61270;Laerm;47150;53.032;8.960;2023-02-25T00:29:29;38.32;36.86;39.56;;
61270;Laerm;47150;53.032;8.960;2023-02-25T00:31:54;38.30;37.02;39.54;;
61270;Laerm;47150;53.032;8.960;2023-02-25T00:34:20;38.29;36.73;39.60;;
61270;Laerm;47150;53.032;8.960;2023-02-25T00:36:45;38.27;36.75;39.43;;
61270;Laerm;47150;53.032;8.960;2023-02-25T00:39:11;38.26;36.78;39.44;;
61270;Laerm;47150;53.032;8.960;2023-02-25T00:41:37;38.22;36.94;39.54;;
61270;Laerm;47150;53.032;8.960;2023-02-25T00:44:02;38.20;36.98;39.59;;
61270;Laerm;47150;53.032;8.960;2023-02-25T00:46:29;38.20;36.84;39.53;;
61270;Laerm;47150;53.032;8.960;2023-02-25T00:48:55;38.18;36.76;39.28;;
61270;Laerm;47150;53.032;8.960;2023-02-25T00:51:23;38.13;36.87;39.51;;
61270;Laerm;47150;53.032;8.960;2023-02-25T00:53:51;38.08;36.67;39.23;;
61270;Laerm;47150;53.032;8.960;2023-02-25T00:56:16;38.04;36.79;39.39;;
61270;Laerm;47150;53.032;8.960;2023-02-25T00:58:45;37.95;36.85;39.13;;
61270;Laerm;47150;53.032;8.960;2023-02-25T01:01:19;37.88;36.43;39.29;;
61270;Laerm;47150;53.032;8.960;2023-02-25T01:03:45;37.87;36.44;39.23;;
61270;Laerm;47150;53.032;8.960;2023-02-25T01:06:11;37.92;36.53;39.19;;
61270;Laerm;47150;53.032;8.960;2023-02-25T01:08:36;37.91;36.48;39.13;;
61270;Laerm;47150;53.032;8.960;2023-02-25T01:11:14;37.86;36.63;39.03;;
61270;Laerm;47150;53.032;8.960;2023-02-25T01:13:40;37.81;36.44;39.06;;
61270;Laerm;47150;53.032;8.960;2023-02-25T01:16:11;37.74;36.20;39.15;;
61270;Laerm;47150;53.032;8.960;2023-02-25T01:18:37;37.73;36.32;38.96;;
61270;Laerm;47150;53.032;8.960;2023-02-25T01:21:02;37.78;36.49;39.13;;
61270;Laerm;47150;53.032;8.960;2023-02-25T01:23:28;37.74;36.44;39.02;;
61270;Laerm;47150;53.032;8.960;2023-02-25T01:25:54;37.71;36.38;38.89;;
61270;Laerm;47150;53.032;8.960;2023-02-25T01:28:19;37.74;35.95;38.98;;
61270;Laerm;47150;53.032;8.960;2023-02-25T01:30:45;37.77;36.29;39.13;;
61270;Laerm;47150;53.032;8.960;2023-02-25T01:33:11;37.75;36.45;39.10;;
61270;Laerm;47150;53.032;8.960;2023-02-25T01:35:36;37.80;36.32;38.97;;
61270;Laerm;47150;53.032;8.960;2023-02-25T01:38:02;37.87;36.47;39.05;;
61270;Laerm;47150;53.032;8.960;2023-02-25T01:40:27;37.92;36.51;39.31;;
61270;Laerm;47150;53.032;8.960;2023-02-25T01:42:52;37.93;36.46;39.20;;
61270;Laerm;47150;53.032;8.960;2023-02-25T01:47:46;37.80;36.56;39.06;;
61270;Laerm;47150;53.032;8.960;2023-02-25T01:50:13;37.79;36.28;38.99;;
61270;Laerm;47150;53.032;8.960;2023-02-25T01:52:40;37.77;36.53;38.90;;
61270;Laerm;47150;53.032;8.960;2023-02-25T01:55:08;37.81;36.39;39.09;;
61270;Laerm;47150;53.032;8.960;2023-02-25T01:57:34;37.83;36.25;39.09;;
61270;Laerm;47150;53.032;8.960;2023-02-25T02:00:00;37.79;36.47;38.95;;
61270;Laerm;47150;53.032;8.960;2023-02-25T02:02:27;37.78;36.50;39.06;;
61270;Laerm;47150;53.032;8.960;2023-02-25T02:04:53;37.74;36.42;39.11;;
61270;Laerm;47150;53.032;8.960;2023-02-25T02:07:20;37.72;36.49;39.13;;
61270;Laerm;47150;53.032;8.960;2023-02-25T02:09:47;37.71;36.38;39.14;;
61270;Laerm;47150;53.032;8.960;2023-02-25T02:12:23;37.68;36.50;38.88;;
61270;Laerm;47150;53.032;8.960;2023-02-25T02:14:49;37.68;36.06;38.89;;
61270;Laerm;47150;53.032;8.960;2023-02-25T02:18:15;37.73;36.43;38.92;;
61270;Laerm;47150;53.032;8.960;2023-02-25T02:20:11;37.79;36.38;39.14;;
61270;Laerm;47150;53.032;8.960;2023-02-25T02:28:36;37.77;36.47;39.07;;
61270;Laerm;47150;53.032;8.960;2023-02-25T02:45:31;37.60;36.31;38.92;;
61270;Laerm;47150;53.032;8.960;2023-02-25T02:48:07;37.60;36.39;38.88;;
61270;Laerm;47150;53.032;8.960;2023-02-25T02:50:51;37.61;36.42;38.90;;
61270;Laerm;47150;53.032;8.960;2023-02-25T02:53:25;37.58;36.14;38.93;;
61270;Laerm;47150;53.032;8.960;2023-02-25T02:55:55;37.54;35.78;38.67;;
61270;Laerm;47150;53.032;8.960;2023-02-25T02:58:27;37.51;36.11;38.86;;
61270;Laerm;47150;53.032;8.960;2023-02-25T03:01:04;37.50;36.10;38.68;;
61270;Laerm;47150;53.032;8.960;2023-02-25T03:03:35;37.49;36.26;38.64;;
61270;Laerm;47150;53.032;8.960;2023-02-25T03:06:24;37.46;36.14;38.64;;
61270;Laerm;47150;53.032;8.960;2023-02-25T03:09:14;37.47;36.04;38.81;;
61270;Laerm;47150;53.032;8.960;2023-02-25T03:11:42;37.49;36.22;38.72;;
61270;Laerm;47150;53.032;8.960;2023-02-25T03:14:07;37.49;36.23;38.82;;
61270;Laerm;47150;53.032;8.960;2023-02-25T03:16:39;37.50;36.21;38.86;;
61270;Laerm;47150;53.032;8.960;2023-02-25T03:19:10;37.49;35.89;38.73;;
61270;Laerm;47150;53.032;8.960;2023-02-25T03:21:47;37.49;35.78;38.85;;
61270;Laerm;47150;53.032;8.960;2023-02-25T03:24:21;37.46;35.97;38.68;;
61270;Laerm;47150;53.032;8.960;2023-02-25T03:26:51;37.44;36.03;38.66;;
61270;Laerm;47150;53.032;8.960;2023-02-25T03:29:20;37.43;36.19;38.73;;
61270;Laerm;47150;53.032;8.960;2023-02-25T03:31:53;37.42;36.15;38.67;;
61270;Laerm;47150;53.032;8.960;2023-02-25T03:34:34;37.38;35.94;38.49;;
61270;Laerm;47150;53.032;8.960;2023-02-25T03:37:14;37.35;35.89;38.54;;
61270;Laerm;47150;53.032;8.960;2023-02-25T03:39:45;37.35;35.99;38.80;;
61270;Laerm;47150;53.032;8.960;2023-02-25T03:42:17;37.34;36.02;38.56;;
61270;Laerm;47150;53.032;8.960;2023-02-25T03:44:50;37.31;35.63;38.78;;
61270;Laerm;47150;53.032;8.960;2023-02-25T03:47:18;37.31;36.03;38.61;;
61270;Laerm;47150;53.032;8.960;2023-02-25T03:52:35;37.29;36.00;38.59;;
61270;Laerm;47150;53.032;8.960;2023-02-25T03:55:01;37.29;35.66;38.63;;
61270;Laerm;47150;53.032;8.960;2023-02-25T03:57:36;37.29;35.99;38.46;;
61270;Laerm;47150;53.032;8.960;2023-02-25T04:00:04;37.29;35.94;39.70;;
61270;Laerm;47150;53.032;8.960;2023-02-25T04:02:40;37.29;35.90;38.61;;
61270;Laerm;47150;53.032;8.960;2023-02-25T04:05:06;37.31;36.03;38.65;;
61270;Laerm;47150;53.032;8.960;2023-02-25T04:07:31;37.32;35.92;38.59;;
61270;Laerm;47150;53.032;8.960;2023-02-25T04:09:57;37.32;35.77;38.45;;
61270;Laerm;47150;53.032;8.960;2023-02-25T04:12:22;37.31;36.04;38.64;;
61270;Laerm;47150;53.032;8.960;2023-02-25T04:14:47;37.30;35.90;38.59;;
61270;Laerm;47150;53.032;8.960;2023-02-25T04:17:13;37.31;35.89;38.61;;
61270;Laerm;47150;53.032;8.960;2023-02-25T04:19:38;37.31;35.71;38.63;;
61270;Laerm;47150;53.032;8.960;2023-02-25T04:22:03;37.30;35.88;38.60;;
61270;Laerm;47150;53.032;8.960;2023-02-25T04:24:32;37.29;35.96;38.58;;
61270;Laerm;47150;53.032;8.960;2023-02-25T04:26:57;37.30;36.10;38.64;;
61270;Laerm;47150;53.032;8.960;2023-02-25T04:29:26;37.29;36.02;38.59;;
61270;Laerm;47150;53.032;8.960;2023-02-25T04:31:51;37.28;35.75;38.43;;
61270;Laerm;47150;53.032;8.960;2023-02-25T04:34:17;37.27;35.75;38.33;;
61270;Laerm;47150;53.032;8.960;2023-02-25T04:36:44;37.26;35.84;38.46;;
61270;Laerm;47150;53.032;8.960;2023-02-25T04:39:11;37.27;36.03;38.56;;
61270;Laerm;47150;53.032;8.960;2023-02-25T04:41:37;37.27;35.87;38.53;;
61270;Laerm;47150;53.032;8.960;2023-02-25T04:44:04;37.26;35.70;38.57;;
61270;Laerm;47150;53.032;8.960;2023-02-25T04:46:32;37.25;36.01;38.50;;
61270;Laerm;47150;53.032;8.960;2023-02-25T04:48:57;37.24;35.64;38.86;;
61270;Laerm;47150;53.032;8.960;2023-02-25T04:51:23;37.21;35.83;38.71;;
61270;Laerm;47150;53.032;8.960;2023-02-25T04:53:48;37.19;35.80;38.59;;
61270;Laerm;47150;53.032;8.960;2023-02-25T04:56:14;37.19;35.84;38.54;;
61270;Laerm;47150;53.032;8.960;2023-02-25T04:58:40;37.17;35.87;38.49;;
61270;Laerm;47150;53.032;8.960;2023-02-25T05:01:07;37.15;35.79;38.44;;
61270;Laerm;47150;53.032;8.960;2023-02-25T05:03:33;37.13;35.81;38.36;;
61270;Laerm;47150;53.032;8.960;2023-02-25T05:06:00;37.08;35.73;38.21;;
61270;Laerm;47150;53.032;8.960;2023-02-25T05:08:25;37.05;35.60;38.56;;
61270;Laerm;47150;53.032;8.960;2023-02-25T05:10:51;37.07;35.73;38.32;;
61270;Laerm;47150;53.032;8.960;2023-02-25T05:13:18;37.07;35.74;38.28;;
61270;Laerm;47150;53.032;8.960;2023-02-25T05:15:43;37.08;35.67;38.99;;
61270;Laerm;47150;53.032;8.960;2023-02-25T05:18:09;37.10;35.71;38.33;;
61270;Laerm;47150;53.032;8.960;2023-02-25T05:20:41;37.11;35.71;38.33;;
61270;Laerm;47150;53.032;8.960;2023-02-25T05:23:07;37.13;35.85;38.71;;
61270;Laerm;47150;53.032;8.960;2023-02-25T05:25:33;37.13;35.44;38.62;;
61270;Laerm;47150;53.032;8.960;2023-02-25T05:27:59;37.14;35.96;38.40;;
61270;Laerm;47150;53.032;8.960;2023-02-25T05:30:24;37.13;35.68;38.50;;
61270;Laerm;47150;53.032;8.960;2023-02-25T05:32:50;37.14;35.72;38.44;;
61270;Laerm;47150;53.032;8.960;2023-02-25T05:35:15;37.13;35.82;38.53;;
61270;Laerm;47150;53.032;8.960;2023-02-25T05:37:41;37.14;35.95;38.29;;
61270;Laerm;47150;53.032;8.960;2023-02-25T05:40:07;37.19;35.71;38.37;;
61270;Laerm;47150;53.032;8.960;2023-02-25T05:42:38;37.20;35.98;38.45;;
61270;Laerm;47150;53.032;8.960;2023-02-25T05:45:06;37.23;35.88;38.41;;
61270;Laerm;47150;53.032;8.960;2023-02-25T05:47:31;37.25;35.97;38.36;;
61270;Laerm;47150;53.032;8.960;2023-02-25T05:49:56;37.26;36.01;38.36;;
61270;Laerm;47150;53.032;8.960;2023-02-25T05:52:22;37.29;35.99;38.59;;
61270;Laerm;47150;53.032;8.960;2023-02-25T05:54:47;37.33;36.05;38.64;;
61270;Laerm;47150;53.032;8.960;2023-02-25T05:57:12;37.34;35.86;38.60;;
61270;Laerm;47150;53.032;8.960;2023-02-25T05:59:38;37.35;35.82;38.46;;
61270;Laerm;47150;53.032;8.960;2023-02-25T06:02:03;37.36;35.99;38.64;;
61270;Laerm;47150;53.032;8.960;2023-02-25T06:04:28;37.37;35.97;38.71;;
61270;Laerm;47150;53.032;8.960;2023-02-25T06:06:54;37.36;36.05;38.58;;
61270;Laerm;47150;53.032;8.960;2023-02-25T06:09:20;37.36;36.05;38.69;;
61270;Laerm;47150;53.032;8.960;2023-02-25T06:11:47;37.36;36.08;38.49;;
61270;Laerm;47150;53.032;8.960;2023-02-25T06:14:13;37.36;36.18;38.49;;
61270;Laerm;47150;53.032;8.960;2023-02-25T06:16:39;37.35;35.89;38.56;;
61270;Laerm;47150;53.032;8.960;2023-02-25T06:19:05;37.33;35.89;38.52;;
61270;Laerm;47150;53.032;8.960;2023-02-25T06:21:31;37.33;36.13;38.76;;
61270;Laerm;47150;53.032;8.960;2023-02-25T06:23:58;37.35;36.09;38.69;;
61270;Laerm;47150;53.032;8.960;2023-02-25T06:26:25;37.33;36.00;38.60;;
61270;Laerm;47150;53.032;8.960;2023-02-25T06:28:50;37.33;35.91;38.52;;
61270;Laerm;47150;53.032;8.960;2023-02-25T06:31:17;37.34;36.09;38.51;;
61270;Laerm;47150;53.032;8.960;2023-02-25T06:33:43;37.33;36.13;38.61;;
61270;Laerm;47150;53.032;8.960;2023-02-25T06:36:10;37.33;35.92;38.63;;
61270;Laerm;47150;53.032;8.960;2023-02-25T06:38:37;37.34;35.89;38.64;;
61270;Laerm;47150;53.032;8.960;2023-02-25T06:41:08;37.33;35.83;38.52;;
61270;Laerm;47150;53.032;8.960;2023-02-25T06:43:34;37.34;36.00;38.59;;
61270;Laerm;47150;53.032;8.960;2023-02-25T06:46:03;37.36;35.93;38.65;;
61270;Laerm;47150;53.032;8.960;2023-02-25T06:48:29;37.35;35.87;38.65;;
61270;Laerm;47150;53.032;8.960;2023-02-25T06:50:55;37.36;35.90;38.61;;
61270;Laerm;47150;53.032;8.960;2023-02-25T06:53:20;37.37;35.98;38.89;;
61270;Laerm;47150;53.032;8.960;2023-02-25T06:55:46;37.37;36.05;38.54;;
61270;Laerm;47150;53.032;8.960;2023-02-25T06:58:12;37.37;35.85;38.51;;
61270;Laerm;47150;53.032;8.960;2023-02-25T07:00:37;37.35;36.06;38.56;;
61270;Laerm;47150;53.032;8.960;2023-02-25T07:03:03;37.36;36.06;38.61;;
61270;Laerm;47150;53.032;8.960;2023-02-25T07:05:29;37.35;35.94;38.70;;
61270;Laerm;47150;53.032;8.960;2023-02-25T07:07:54;37.35;36.01;38.54;;
61270;Laerm;47150;53.032;8.960;2023-02-25T07:10:20;37.33;35.97;38.56;;
61270;Laerm;47150;53.032;8.960;2023-02-25T07:12:45;37.31;36.00;38.58;;
61270;Laerm;47150;53.032;8.960;2023-02-25T07:15:10;37.29;35.77;38.43;;
61270;Laerm;47150;53.032;8.960;2023-02-25T07:17:36;37.29;36.04;38.42;;
61270;Laerm;47150;53.032;8.960;2023-02-25T07:20:01;37.30;36.05;38.48;;
61270;Laerm;47150;53.032;8.960;2023-02-25T07:22:27;37.30;36.00;38.44;;
61270;Laerm;47150;53.032;8.960;2023-02-25T07:24:52;37.31;36.10;38.49;;
61270;Laerm;47150;53.032;8.960;2023-02-25T07:27:17;37.29;35.96;38.42;;
61270;Laerm;47150;53.032;8.960;2023-02-25T07:29:43;37.30;35.89;38.58;;
61270;Laerm;47150;53.032;8.960;2023-02-25T07:32:08;37.34;36.11;38.64;;
61270;Laerm;47150;53.032;8.960;2023-02-25T07:34:34;37.36;35.84;38.51;;
61270;Laerm;47150;53.032;8.960;2023-02-25T07:37:01;37.41;36.01;38.65;;
61270;Laerm;47150;53.032;8.960;2023-02-25T07:39:26;37.46;36.14;38.89;;
61270;Laerm;47150;53.032;8.960;2023-02-25T07:41:51;37.49;36.19;38.76;;
61270;Laerm;47150;53.032;8.960;2023-02-25T07:44:17;37.52;36.07;38.72;;
61270;Laerm;47150;53.032;8.960;2023-02-25T07:46:42;37.56;36.10;38.87;;
61270;Laerm;47150;53.032;8.960;2023-02-25T07:49:08;37.59;36.13;38.84;;
61270;Laerm;47150;53.032;8.960;2023-02-25T07:51:33;37.58;35.94;38.87;;
61270;Laerm;47150;53.032;8.960;2023-02-25T07:53:58;37.59;36.26;38.75;;
61270;Laerm;47150;53.032;8.960;2023-02-25T07:56:26;37.59;36.22;38.78;;
61270;Laerm;47150;53.032;8.960;2023-02-25T07:58:52;37.55;36.19;38.86;;
61270;Laerm;47150;53.032;8.960;2023-02-25T08:01:20;37.54;36.14;38.77;;
61270;Laerm;47150;53.032;8.960;2023-02-25T08:03:51;37.52;36.25;38.75;;
61270;Laerm;47150;53.032;8.960;2023-02-25T08:06:18;37.50;36.02;38.78;;
61270;Laerm;47150;53.032;8.960;2023-02-25T08:08:43;37.47;36.11;38.67;;
61270;Laerm;47150;53.032;8.960;2023-02-25T08:11:12;37.46;35.86;38.66;;
61270;Laerm;47150;53.032;8.960;2023-02-25T08:13:38;37.44;36.12;38.64;;
61270;Laerm;47150;53.032;8.960;2023-02-25T08:16:09;37.40;36.12;38.60;;
61270;Laerm;47150;53.032;8.960;2023-02-25T08:18:35;37.40;36.20;38.80;;
61270;Laerm;47150;53.032;8.960;2023-02-25T08:21:00;37.33;36.04;38.76;;
61270;Laerm;47150;53.032;8.960;2023-02-25T08:23:26;37.31;35.87;38.60;;
61270;Laerm;47150;53.032;8.960;2023-02-25T08:25:56;37.33;35.89;38.54;;
61270;Laerm;47150;53.032;8.960;2023-02-25T08:28:23;37.29;35.88;38.53;;
61270;Laerm;47150;53.032;8.960;2023-02-25T08:30:50;37.28;35.91;38.58;;
61270;Laerm;47150;53.032;8.960;2023-02-25T08:33:16;37.28;35.95;38.56;;
61270;Laerm;47150;53.032;8.960;2023-02-25T08:35:42;37.30;36.07;38.59;;
61270;Laerm;47150;53.032;8.960;2023-02-25T08:38:07;37.28;35.76;38.55;;
61270;Laerm;47150;53.032;8.960;2023-02-25T08:40:33;37.21;35.70;38.53;;
61270;Laerm;47150;53.032;8.960;2023-02-25T08:42:59;37.22;35.54;38.40;;
61270;Laerm;47150;53.032;8.960;2023-02-25T08:45:24;37.22;35.73;38.48;;
61270;Laerm;47150;53.032;8.960;2023-02-25T08:47:49;37.20;35.83;38.46;;
61270;Laerm;47150;53.032;8.960;2023-02-25T08:50:15;37.22;35.67;38.43;;
61270;Laerm;47150;53.032;8.960;2023-02-25T08:52:44;37.23;35.99;38.57;;
61270;Laerm;47150;53.032;8.960;2023-02-25T08:55:09;37.18;35.79;38.47;;
61270;Laerm;47150;53.032;8.960;2023-02-25T08:57:39;37.13;35.72;38.47;;
61270;Laerm;47150;53.032;8.960;2023-02-25T09:00:05;37.05;35.52;38.40;;
61270;Laerm;47150;53.032;8.960;2023-02-25T09:02:31;37.01;35.71;39.62;;
61270;Laerm;47150;53.032;8.960;2023-02-25T09:04:56;36.93;35.57;38.31;;
61270;Laerm;47150;53.032;8.960;2023-02-25T09:07:22;36.91;35.52;38.11;;
61270;Laerm;47150;53.032;8.960;2023-02-25T09:09:47;36.87;35.26;38.22;;
61270;Laerm;47150;53.032;8.960;2023-02-25T09:12:13;36.78;35.35;38.15;;
61270;Laerm;47150;53.032;8.960;2023-02-25T09:14:38;36.60;35.22;39.84;;
61270;Laerm;47150;53.032;8.960;2023-02-25T09:17:05;36.48;34.99;37.93;;
61270;Laerm;47150;53.032;8.960;2023-02-25T09:19:31;36.41;35.02;37.65;;
61270;Laerm;47150;53.032;8.960;2023-02-25T09:21:56;36.38;34.87;37.73;;
61270;Laerm;47150;53.032;8.960;2023-02-25T09:24:22;36.34;34.80;38.03;;
61270;Laerm;47150;53.032;8.960;2023-02-25T09:26:48;36.29;34.65;37.88;;
61270;Laerm;47150;53.032;8.960;2023-02-25T09:29:13;36.23;34.78;37.45;;
61270;Laerm;47150;53.032;8.960;2023-02-25T09:31:39;36.22;34.95;43.96;;
61270;Laerm;47150;53.032;8.960;2023-02-25T09:34:07;36.11;34.68;37.56;;
61270;Laerm;47150;53.032;8.960;2023-02-25T09:36:34;36.12;34.83;43.52;;
61270;Laerm;47150;53.032;8.960;2023-02-25T09:38:59;36.00;34.50;44.12;;
61270;Laerm;47150;53.032;8.960;2023-02-25T09:41:30;35.92;34.60;39.52;;
61270;Laerm;47150;53.032;8.960;2023-02-25T09:44:02;35.85;34.37;40.89;;
61270;Laerm;47150;53.032;8.960;2023-02-25T09:46:32;35.81;34.18;42.59;;
61270;Laerm;47150;53.032;8.960;2023-02-25T09:49:16;35.82;34.37;52.67;;
61270;Laerm;47150;53.032;8.960;2023-02-25T09:51:45;35.72;34.20;47.30;;
61270;Laerm;47150;53.032;8.960;2023-02-25T09:54:24;35.68;34.23;48.03;;
61270;Laerm;47150;53.032;8.960;2023-02-25T09:56:54;35.64;34.10;51.27;;
61270;Laerm;47150;53.032;8.960;2023-02-25T09:59:23;35.56;33.76;45.22;;
61270;Laerm;47150;53.032;8.960;2023-02-25T10:01:59;35.56;34.08;44.63;;
61270;Laerm;47150;53.032;8.960;2023-02-25T10:04:46;35.46;34.17;39.50;;
61270;Laerm;47150;53.032;8.960;2023-02-25T10:07:19;35.48;34.10;41.49;;
61270;Laerm;47150;53.032;8.960;2023-02-25T10:09:55;35.46;34.02;42.78;;
61270;Laerm;47150;53.032;8.960;2023-02-25T10:18:24;35.48;33.80;46.60;;
61270;Laerm;47150;53.032;8.960;2023-02-25T10:21:19;35.41;34.01;47.65;;
61270;Laerm;47150;53.032;8.960;2023-02-25T10:26:36;35.38;33.86;47.21;;
61270;Laerm;47150;53.032;8.960;2023-02-25T10:29:06;35.30;33.61;44.24;;
61270;Laerm;47150;53.032;8.960;2023-02-25T10:31:32;35.34;33.97;42.15;;
61270;Laerm;47150;53.032;8.960;2023-02-25T10:34:11;35.18;33.74;47.04;;
61270;Laerm;47150;53.032;8.960;2023-02-25T10:36:42;35.27;33.67;49.22;;
61270;Laerm;47150;53.032;8.960;2023-02-25T10:39:10;35.17;33.68;48.61;;
61270;Laerm;47150;53.032;8.960;2023-02-25T10:41:36;35.11;33.62;39.24;;
61270;Laerm;47150;53.032;8.960;2023-02-25T10:44:01;35.06;33.41;37.37;;
61270;Laerm;47150;53.032;8.960;2023-02-25T10:46:35;35.01;33.51;45.09;;
61270;Laerm;47150;53.032;8.960;2023-02-25T10:49:13;34.99;33.42;43.05;;
61270;Laerm;47150;53.032;8.960;2023-02-25T10:51:59;34.88;33.23;38.21;;
61270;Laerm;47150;53.032;8.960;2023-02-25T10:54:34;34.98;33.34;43.07;;
61270;Laerm;47150;53.032;8.960;2023-02-25T10:57:06;34.99;33.44;44.48;;
61270;Laerm;47150;53.032;8.960;2023-02-25T10:59:39;34.83;33.04;45.88;;
61270;Laerm;47150;53.032;8.960;2023-02-25T11:02:25;34.62;33.07;41.45;;
61270;Laerm;47150;53.032;8.960;2023-02-25T11:04:52;35.40;33.03;53.34;;
61270;Laerm;47150;53.032;8.960;2023-02-25T11:07:48;34.39;32.85;38.39;;
61270;Laerm;47150;53.032;8.960;2023-02-25T11:10:19;34.34;32.61;48.77;;
61270;Laerm;47150;53.032;8.960;2023-02-25T11:12:50;34.51;32.97;46.67;;
61270;Laerm;47150;53.032;8.960;2023-02-25T11:17:58;34.36;32.71;41.53;;
61270;Laerm;47150;53.032;8.960;2023-02-25T11:20:28;34.32;32.70;46.26;;
61270;Laerm;47150;53.032;8.960;2023-02-25T11:22:56;33.92;32.26;43.71;;
61270;Laerm;47150;53.032;8.960;2023-02-25T11:25:31;33.76;32.05;45.29;;
61270;Laerm;47150;53.032;8.960;2023-02-25T11:27:59;33.98;31.94;47.55;;
61270;Laerm;47150;53.032;8.960;2023-02-25T11:30:36;33.82;32.33;36.76;;
61270;Laerm;47150;53.032;8.960;2023-02-25T11:33:33;33.92;32.22;48.96;;
61270;Laerm;47150;53.032;8.960;2023-02-25T11:36:00;33.90;32.14;47.70;;
61270;Laerm;47150;53.032;8.960;2023-02-25T11:40:51;33.93;32.04;48.28;;
61270;Laerm;47150;53.032;8.960;2023-02-25T11:43:35;34.15;32.30;50.36;;
61270;Laerm;47150;53.032;8.960;2023-02-25T11:51:24;34.01;32.39;43.71;;
61270;Laerm;47150;53.032;8.960;2023-02-25T11:54:07;34.00;32.33;46.19;;
61270;Laerm;47150;53.032;8.960;2023-02-25T11:56:42;33.86;32.36;47.69;;
61270;Laerm;47150;53.032;8.960;2023-02-25T11:59:50;33.90;32.15;52.17;;
61270;Laerm;47150;53.032;8.960;2023-02-25T12:02:31;33.89;31.96;47.84;;
61270;Laerm;47150;53.032;8.960;2023-02-25T12:05:03;33.72;32.14;47.76;;
61270;Laerm;47150;53.032;8.960;2023-02-25T12:23:05;32.93;31.54;40.40;;
61270;Laerm;47150;53.032;8.960;2023-02-25T12:33:21;32.98;31.64;36.41;;
61270;Laerm;47150;53.032;8.960;2023-02-25T12:36:21;33.12;31.69;47.73;;
61270;Laerm;47150;53.032;8.960;2023-02-25T12:39:46;33.05;31.61;44.38;;
61270;Laerm;47150;53.032;8.960;2023-02-25T12:47:23;33.20;31.61;39.42;;
61270;Laerm;47150;53.032;8.960;2023-02-25T12:55:35;33.16;31.64;42.95;;
61270;Laerm;47150;53.032;8.960;2023-02-25T13:01:00;33.27;31.87;41.32;;
61270;Laerm;47150;53.032;8.960;2023-02-25T13:18:01;33.07;31.63;42.79;;
61270;Laerm;47150;53.032;8.960;2023-02-25T13:26:53;33.16;31.83;35.02;;
61270;Laerm;47150;53.032;8.960;2023-02-25T13:29:47;33.05;31.55;41.57;;
61270;Laerm;47150;53.032;8.960;2023-02-25T13:32:39;33.18;31.78;37.95;;
61270;Laerm;47150;53.032;8.960;2023-02-25T13:35:16;33.21;31.36;50.76;;
61270;Laerm;47150;53.032;8.960;2023-02-25T13:40:49;32.86;31.22;44.37;;
61270;Laerm;47150;53.032;8.960;2023-02-25T13:45:58;33.01;31.48;34.46;;
61270;Laerm;47150;53.032;8.960;2023-02-25T13:51:07;32.93;31.25;43.41;;
61270;Laerm;47150;53.032;8.960;2023-02-25T13:54:11;32.95;31.33;39.97;;
61270;Laerm;47150;53.032;8.960;2023-02-25T13:56:55;32.98;31.69;39.75;;
61270;Laerm;47150;53.032;8.960;2023-02-25T13:59:56;32.94;31.13;44.93;;
61270;Laerm;47150;53.032;8.960;2023-02-25T14:06:09;32.59;31.03;36.45;;
61270;Laerm;47150;53.032;8.960;2023-02-25T14:19:42;32.72;31.07;35.16;;
61270;Laerm;47150;53.032;8.960;2023-02-25T14:22:35;32.38;30.92;33.55;;
61270;Laerm;47150;53.032;8.960;2023-02-25T14:28:08;32.40;30.75;38.89;;
61270;Laerm;47150;53.032;8.960;2023-02-25T14:36:18;32.55;30.74;46.96;;
61270;Laerm;47150;53.032;8.960;2023-02-25T14:44:58;32.44;30.94;39.33;;
61270;Laerm;47150;53.032;8.960;2023-02-25T14:47:32;32.42;30.88;42.55;;
61270;Laerm;47150;53.032;8.960;2023-02-25T15:01:02;32.22;30.60;33.77;;
61270;Laerm;47150;53.032;8.960;2023-02-25T15:11:35;32.33;30.89;34.70;;
61270;Laerm;47150;53.032;8.960;2023-02-25T15:20:09;32.16;30.86;38.29;;
61270;Laerm;47150;53.032;8.960;2023-02-25T15:22:52;32.45;30.83;48.52;;
61270;Laerm;47150;53.032;8.960;2023-02-25T15:27:51;32.22;30.64;40.60;;
61270;Laerm;47150;53.032;8.960;2023-02-25T15:30:19;32.25;30.90;41.66;;
61270;Laerm;47150;53.032;8.960;2023-02-25T15:40:48;32.09;30.15;39.72;;
61270;Laerm;47150;53.032;8.960;2023-02-25T15:48:32;32.05;30.79;35.34;;
61270;Laerm;47150;53.032;8.960;2023-02-25T15:51:03;32.05;30.71;33.52;;
61270;Laerm;47150;53.032;8.960;2023-02-25T16:08:42;32.44;31.15;36.05;;
61270;Laerm;47150;53.032;8.960;2023-02-25T16:11:44;32.34;31.00;35.98;;
61270;Laerm;47150;53.032;8.960;2023-02-25T16:16:55;32.40;30.93;33.65;;
61270;Laerm;47150;53.032;8.960;2023-02-25T16:19:24;32.43;31.09;33.64;;
61270;Laerm;47150;53.032;8.960;2023-02-25T16:22:12;32.43;31.13;33.70;;
61270;Laerm;47150;53.032;8.960;2023-02-25T16:24:46;32.46;31.07;33.69;;
61270;Laerm;47150;53.032;8.960;2023-02-25T16:27:30;32.46;31.13;33.83;;
61270;Laerm;47150;53.032;8.960;2023-02-25T16:30:16;32.51;31.08;34.11;;
61270;Laerm;47150;53.032;8.960;2023-02-25T16:35:46;32.60;31.15;34.26;;
61270;Laerm;47150;53.032;8.960;2023-02-25T16:38:21;32.70;31.33;34.02;;
61270;Laerm;47150;53.032;8.960;2023-02-25T16:40:51;32.78;31.18;34.14;;
61270;Laerm;47150;53.032;8.960;2023-02-25T16:43:30;32.86;31.58;34.28;;
61270;Laerm;47150;53.032;8.960;2023-02-25T16:46:09;32.91;31.49;34.16;;
61270;Laerm;47150;53.032;8.960;2023-02-25T16:48:41;32.93;31.27;34.28;;
61270;Laerm;47150;53.032;8.960;2023-02-25T16:51:13;32.98;31.62;34.14;;
61270;Laerm;47150;53.032;8.960;2023-02-25T16:53:45;33.02;31.70;34.42;;
61270;Laerm;47150;53.032;8.960;2023-02-25T16:56:18;33.05;31.61;34.26;;
61270;Laerm;47150;53.032;8.960;2023-02-25T17:01:31;33.08;31.59;34.31;;
61270;Laerm;47150;53.032;8.960;2023-02-25T17:04:23;33.11;31.52;34.54;;
61270;Laerm;47150;53.032;8.960;2023-02-25T17:09:57;33.16;31.66;34.45;;
61270;Laerm;47150;53.032;8.960;2023-02-25T17:15:02;33.17;31.78;34.47;;
61270;Laerm;47150;53.032;8.960;2023-02-25T17:17:30;33.19;31.76;34.67;;
61270;Laerm;47150;53.032;8.960;2023-02-25T17:19:57;33.21;31.94;35.63;;
61270;Laerm;47150;53.032;8.960;2023-02-25T17:22:25;33.18;31.75;34.59;;
61270;Laerm;47150;53.032;8.960;2023-02-25T17:24:52;33.14;31.46;34.39;;
61270;Laerm;47150;53.032;8.960;2023-02-25T17:27:20;33.14;31.48;34.47;;
61270;Laerm;47150;53.032;8.960;2023-02-25T17:29:48;33.15;31.59;34.62;;